sensor_id;sensor_type;location;lat;lon;timestamp;temperature;humidity
56426;DHT22;42330;43.620;3.856;2022-08-19T00:01:47;22.20;76.70
56426;DHT22;42330;43.620;3.856;2022-08-19T00:04:15;22.30;76.40
56426;DHT22;42330;43.620;3.856;2022-08-19T00:06:43;22.30;76.80
56426;DHT22;42330;43.620;3.856;2022-08-19T00:09:15;22.30;77.00
56426;DHT22;42330;43.620;3.856;2022-08-19T00:11:42;22.20;76.60
56426;DHT22;42330;43.620;3.856;2022-08-19T00:14:11;22.30;76.80
56426;DHT22;42330;43.620;3.856;2022-08-19T00:16:38;22.30;76.70
56426;DHT22;42330;43.620;3.856;2022-08-19T00:19:04;22.30;76.40
56426;DHT22;42330;43.620;3.856;2022-08-19T00:21:30;22.40;76.70
56426;DHT22;42330;43.620;3.856;2022-08-19T00:23:57;22.30;77.10
56426;DHT22;42330;43.620;3.856;2022-08-19T00:26:24;22.30;76.70
56426;DHT22;42330;43.620;3.856;2022-08-19T00:28:51;22.30;76.90
56426;DHT22;42330;43.620;3.856;2022-08-19T00:31:17;22.30;77.00
56426;DHT22;42330;43.620;3.856;2022-08-19T00:33:42;22.30;77.70
56426;DHT22;42330;43.620;3.856;2022-08-19T00:36:09;22.30;77.90
56426;DHT22;42330;43.620;3.856;2022-08-19T00:38:37;22.20;78.10
56426;DHT22;42330;43.620;3.856;2022-08-19T00:41:04;22.20;77.90
56426;DHT22;42330;43.620;3.856;2022-08-19T00:43:30;22.20;78.20
56426;DHT22;42330;43.620;3.856;2022-08-19T00:45:56;22.10;79.50
56426;DHT22;42330;43.620;3.856;2022-08-19T00:48:22;22.10;80.50
56426;DHT22;42330;43.620;3.856;2022-08-19T00:50:50;22.10;81.90
56426;DHT22;42330;43.620;3.856;2022-08-19T00:53:20;22.00;82.20
56426;DHT22;42330;43.620;3.856;2022-08-19T00:55:49;21.90;81.70
56426;DHT22;42330;43.620;3.856;2022-08-19T00:58:19;21.90;81.70
56426;DHT22;42330;43.620;3.856;2022-08-19T01:00:46;21.90;82.20
56426;DHT22;42330;43.620;3.856;2022-08-19T01:03:16;21.90;81.70
56426;DHT22;42330;43.620;3.856;2022-08-19T01:05:44;21.80;81.50
56426;DHT22;42330;43.620;3.856;2022-08-19T01:08:10;21.90;81.00
56426;DHT22;42330;43.620;3.856;2022-08-19T01:10:54;21.80;81.90
56426;DHT22;42330;43.620;3.856;2022-08-19T01:13:24;21.90;80.80
56426;DHT22;42330;43.620;3.856;2022-08-19T01:16:04;21.90;80.40
56426;DHT22;42330;43.620;3.856;2022-08-19T01:18:32;21.90;81.00
56426;DHT22;42330;43.620;3.856;2022-08-19T01:21:02;21.90;80.80
56426;DHT22;42330;43.620;3.856;2022-08-19T01:23:28;21.90;80.60
56426;DHT22;42330;43.620;3.856;2022-08-19T01:26:13;21.90;80.70
56426;DHT22;42330;43.620;3.856;2022-08-19T01:28:41;21.90;80.30
56426;DHT22;42330;43.620;3.856;2022-08-19T01:31:15;21.90;81.10
56426;DHT22;42330;43.620;3.856;2022-08-19T01:33:41;21.90;80.10
56426;DHT22;42330;43.620;3.856;2022-08-19T01:36:10;21.90;80.50
56426;DHT22;42330;43.620;3.856;2022-08-19T01:38:38;21.90;79.70
56426;DHT22;42330;43.620;3.856;2022-08-19T01:41:05;21.90;79.20
56426;DHT22;42330;43.620;3.856;2022-08-19T01:43:32;21.90;78.80
56426;DHT22;42330;43.620;3.856;2022-08-19T01:45:58;22.00;78.70
56426;DHT22;42330;43.620;3.856;2022-08-19T01:48:23;22.00;78.60
56426;DHT22;42330;43.620;3.856;2022-08-19T01:50:49;22.00;78.00
56426;DHT22;42330;43.620;3.856;2022-08-19T01:53:15;22.00;78.20
56426;DHT22;42330;43.620;3.856;2022-08-19T01:55:42;22.00;78.50
56426;DHT22;42330;43.620;3.856;2022-08-19T01:58:18;22.00;78.50
56426;DHT22;42330;43.620;3.856;2022-08-19T02:00:46;22.00;78.50
56426;DHT22;42330;43.620;3.856;2022-08-19T02:03:12;22.00;79.20
56426;DHT22;42330;43.620;3.856;2022-08-19T02:05:38;22.00;78.30
56426;DHT22;42330;43.620;3.856;2022-08-19T02:08:05;22.00;78.70
56426;DHT22;42330;43.620;3.856;2022-08-19T02:10:31;22.00;79.40
56426;DHT22;42330;43.620;3.856;2022-08-19T02:12:57;22.00;78.60
56426;DHT22;42330;43.620;3.856;2022-08-19T02:15:23;22.00;79.10
56426;DHT22;42330;43.620;3.856;2022-08-19T02:17:49;22.00;79.60
56426;DHT22;42330;43.620;3.856;2022-08-19T02:20:16;22.00;78.80
56426;DHT22;42330;43.620;3.856;2022-08-19T02:22:42;21.90;78.50
56426;DHT22;42330;43.620;3.856;2022-08-19T02:25:10;21.90;78.10
56426;DHT22;42330;43.620;3.856;2022-08-19T02:27:36;22.00;76.60
56426;DHT22;42330;43.620;3.856;2022-08-19T02:30:03;22.00;77.50
56426;DHT22;42330;43.620;3.856;2022-08-19T02:32:29;22.00;76.40
56426;DHT22;42330;43.620;3.856;2022-08-19T02:34:56;22.10;76.30
56426;DHT22;42330;43.620;3.856;2022-08-19T02:37:21;22.10;75.70
56426;DHT22;42330;43.620;3.856;2022-08-19T02:40:06;22.10;75.70
56426;DHT22;42330;43.620;3.856;2022-08-19T02:42:32;22.10;75.90
56426;DHT22;42330;43.620;3.856;2022-08-19T02:44:58;22.10;75.90
56426;DHT22;42330;43.620;3.856;2022-08-19T02:47:23;22.10;75.50
56426;DHT22;42330;43.620;3.856;2022-08-19T02:49:49;22.10;75.70
56426;DHT22;42330;43.620;3.856;2022-08-19T02:52:15;22.10;75.70
56426;DHT22;42330;43.620;3.856;2022-08-19T02:54:41;22.10;76.40
56426;DHT22;42330;43.620;3.856;2022-08-19T02:57:07;22.10;75.60
56426;DHT22;42330;43.620;3.856;2022-08-19T02:59:33;22.00;75.60
56426;DHT22;42330;43.620;3.856;2022-08-19T03:01:59;22.10;76.30
56426;DHT22;42330;43.620;3.856;2022-08-19T03:04:25;22.00;76.70
56426;DHT22;42330;43.620;3.856;2022-08-19T03:06:51;22.00;76.10
56426;DHT22;42330;43.620;3.856;2022-08-19T03:09:18;22.00;77.00
56426;DHT22;42330;43.620;3.856;2022-08-19T03:11:44;22.00;76.40
56426;DHT22;42330;43.620;3.856;2022-08-19T03:14:11;21.90;76.50
56426;DHT22;42330;43.620;3.856;2022-08-19T03:16:44;21.90;76.20
56426;DHT22;42330;43.620;3.856;2022-08-19T03:19:10;21.90;75.60
56426;DHT22;42330;43.620;3.856;2022-08-19T03:21:36;21.90;74.70
56426;DHT22;42330;43.620;3.856;2022-08-19T03:24:05;21.90;75.10
56426;DHT22;42330;43.620;3.856;2022-08-19T03:26:31;21.90;75.30
56426;DHT22;42330;43.620;3.856;2022-08-19T03:28:57;22.00;74.90
56426;DHT22;42330;43.620;3.856;2022-08-19T03:31:25;21.90;75.00
56426;DHT22;42330;43.620;3.856;2022-08-19T03:33:51;21.90;75.60
56426;DHT22;42330;43.620;3.856;2022-08-19T03:36:20;21.90;76.20
56426;DHT22;42330;43.620;3.856;2022-08-19T03:38:51;21.90;75.40
56426;DHT22;42330;43.620;3.856;2022-08-19T03:41:23;21.90;75.10
56426;DHT22;42330;43.620;3.856;2022-08-19T03:43:49;21.90;75.30
56426;DHT22;42330;43.620;3.856;2022-08-19T03:46:17;21.90;75.30
56426;DHT22;42330;43.620;3.856;2022-08-19T03:48:47;21.90;75.00
56426;DHT22;42330;43.620;3.856;2022-08-19T03:51:19;21.80;75.60
56426;DHT22;42330;43.620;3.856;2022-08-19T03:53:46;21.90;75.00
56426;DHT22;42330;43.620;3.856;2022-08-19T03:56:12;21.80;74.60
56426;DHT22;42330;43.620;3.856;2022-08-19T03:58:39;21.80;74.50
56426;DHT22;42330;43.620;3.856;2022-08-19T04:01:17;21.80;74.90
56426;DHT22;42330;43.620;3.856;2022-08-19T04:03:43;21.80;74.40
56426;DHT22;42330;43.620;3.856;2022-08-19T04:06:15;21.80;74.50
56426;DHT22;42330;43.620;3.856;2022-08-19T04:08:42;21.80;74.70
56426;DHT22;42330;43.620;3.856;2022-08-19T04:11:10;21.80;74.80
56426;DHT22;42330;43.620;3.856;2022-08-19T04:13:36;21.80;75.20
56426;DHT22;42330;43.620;3.856;2022-08-19T04:16:03;21.80;74.60
56426;DHT22;42330;43.620;3.856;2022-08-19T04:18:29;21.80;74.50
56426;DHT22;42330;43.620;3.856;2022-08-19T04:20:55;21.80;75.10
56426;DHT22;42330;43.620;3.856;2022-08-19T04:23:22;21.80;75.20
56426;DHT22;42330;43.620;3.856;2022-08-19T04:25:49;21.80;74.90
56426;DHT22;42330;43.620;3.856;2022-08-19T04:28:14;21.80;74.60
56426;DHT22;42330;43.620;3.856;2022-08-19T04:30:43;21.80;74.80
56426;DHT22;42330;43.620;3.856;2022-08-19T04:33:10;21.80;74.90
56426;DHT22;42330;43.620;3.856;2022-08-19T04:35:43;21.80;75.00
56426;DHT22;42330;43.620;3.856;2022-08-19T04:38:09;21.80;75.30
56426;DHT22;42330;43.620;3.856;2022-08-19T04:40:41;21.80;74.90
56426;DHT22;42330;43.620;3.856;2022-08-19T04:43:25;21.80;75.00
56426;DHT22;42330;43.620;3.856;2022-08-19T04:45:51;21.70;75.90
56426;DHT22;42330;43.620;3.856;2022-08-19T04:48:17;21.80;75.50
56426;DHT22;42330;43.620;3.856;2022-08-19T04:50:55;21.70;75.00
56426;DHT22;42330;43.620;3.856;2022-08-19T04:53:27;21.70;75.40
56426;DHT22;42330;43.620;3.856;2022-08-19T04:55:55;21.70;75.30
56426;DHT22;42330;43.620;3.856;2022-08-19T04:58:22;21.80;76.00
56426;DHT22;42330;43.620;3.856;2022-08-19T05:00:48;21.70;75.20
56426;DHT22;42330;43.620;3.856;2022-08-19T05:03:14;21.70;75.00
56426;DHT22;42330;43.620;3.856;2022-08-19T05:05:43;21.70;75.40
56426;DHT22;42330;43.620;3.856;2022-08-19T05:08:10;21.70;75.30
56426;DHT22;42330;43.620;3.856;2022-08-19T05:10:37;21.80;75.50
56426;DHT22;42330;43.620;3.856;2022-08-19T05:13:04;21.70;75.50
56426;DHT22;42330;43.620;3.856;2022-08-19T05:15:30;21.70;74.90
56426;DHT22;42330;43.620;3.856;2022-08-19T05:17:55;21.70;75.40
56426;DHT22;42330;43.620;3.856;2022-08-19T05:20:40;21.70;75.30
56426;DHT22;42330;43.620;3.856;2022-08-19T05:23:24;21.70;75.30
56426;DHT22;42330;43.620;3.856;2022-08-19T05:25:51;21.70;75.60
56426;DHT22;42330;43.620;3.856;2022-08-19T05:28:18;21.70;75.40
56426;DHT22;42330;43.620;3.856;2022-08-19T05:30:44;21.70;75.60
56426;DHT22;42330;43.620;3.856;2022-08-19T05:33:11;21.70;75.50
56426;DHT22;42330;43.620;3.856;2022-08-19T05:35:38;21.70;76.00
56426;DHT22;42330;43.620;3.856;2022-08-19T05:38:05;21.70;75.40
56426;DHT22;42330;43.620;3.856;2022-08-19T05:40:35;21.70;76.20
56426;DHT22;42330;43.620;3.856;2022-08-19T05:43:05;21.70;75.40
56426;DHT22;42330;43.620;3.856;2022-08-19T05:45:32;21.70;75.30
56426;DHT22;42330;43.620;3.856;2022-08-19T05:47:58;21.70;75.50
56426;DHT22;42330;43.620;3.856;2022-08-19T05:50:24;21.70;75.70
56426;DHT22;42330;43.620;3.856;2022-08-19T05:52:52;21.70;75.50
56426;DHT22;42330;43.620;3.856;2022-08-19T05:55:18;21.70;75.50
56426;DHT22;42330;43.620;3.856;2022-08-19T05:57:46;21.80;76.10
56426;DHT22;42330;43.620;3.856;2022-08-19T06:00:12;21.80;75.70
56426;DHT22;42330;43.620;3.856;2022-08-19T06:02:39;21.80;75.90
56426;DHT22;42330;43.620;3.856;2022-08-19T06:05:06;21.80;75.10
56426;DHT22;42330;43.620;3.856;2022-08-19T06:07:37;21.90;75.00
56426;DHT22;42330;43.620;3.856;2022-08-19T06:10:06;21.90;75.50
56426;DHT22;42330;43.620;3.856;2022-08-19T06:12:34;21.90;75.00
56426;DHT22;42330;43.620;3.856;2022-08-19T06:15:19;21.90;75.30
56426;DHT22;42330;43.620;3.856;2022-08-19T06:17:45;21.90;74.30
56426;DHT22;42330;43.620;3.856;2022-08-19T06:20:13;21.90;74.70
56426;DHT22;42330;43.620;3.856;2022-08-19T06:22:41;22.00;75.20
56426;DHT22;42330;43.620;3.856;2022-08-19T06:25:07;22.00;74.40
56426;DHT22;42330;43.620;3.856;2022-08-19T06:27:35;22.10;74.30
56426;DHT22;42330;43.620;3.856;2022-08-19T06:30:02;22.10;74.90
56426;DHT22;42330;43.620;3.856;2022-08-19T06:32:28;22.10;75.10
56426;DHT22;42330;43.620;3.856;2022-08-19T06:34:54;22.10;74.30
56426;DHT22;42330;43.620;3.856;2022-08-19T06:37:20;22.10;74.80
56426;DHT22;42330;43.620;3.856;2022-08-19T06:39:47;22.20;74.10
56426;DHT22;42330;43.620;3.856;2022-08-19T06:42:12;22.20;74.80
56426;DHT22;42330;43.620;3.856;2022-08-19T06:44:42;22.20;74.40
56426;DHT22;42330;43.620;3.856;2022-08-19T06:47:10;22.30;73.80
56426;DHT22;42330;43.620;3.856;2022-08-19T06:49:36;22.30;73.40
56426;DHT22;42330;43.620;3.856;2022-08-19T06:52:03;22.30;74.10
56426;DHT22;42330;43.620;3.856;2022-08-19T06:54:29;22.40;73.40
56426;DHT22;42330;43.620;3.856;2022-08-19T06:56:55;22.40;73.00
56426;DHT22;42330;43.620;3.856;2022-08-19T06:59:23;22.50;72.80
56426;DHT22;42330;43.620;3.856;2022-08-19T07:01:55;22.50;73.70
56426;DHT22;42330;43.620;3.856;2022-08-19T07:04:28;22.50;73.00
56426;DHT22;42330;43.620;3.856;2022-08-19T07:07:06;22.60;72.80
56426;DHT22;42330;43.620;3.856;2022-08-19T07:09:34;22.60;72.50
56426;DHT22;42330;43.620;3.856;2022-08-19T07:12:04;22.60;72.50
56426;DHT22;42330;43.620;3.856;2022-08-19T07:14:32;22.70;73.30
56426;DHT22;42330;43.620;3.856;2022-08-19T07:17:04;22.70;73.60
56426;DHT22;42330;43.620;3.856;2022-08-19T07:19:30;22.80;73.20
56426;DHT22;42330;43.620;3.856;2022-08-19T07:21:57;22.80;72.60
56426;DHT22;42330;43.620;3.856;2022-08-19T07:24:24;22.90;71.80
56426;DHT22;42330;43.620;3.856;2022-08-19T07:26:52;22.90;71.90
56426;DHT22;42330;43.620;3.856;2022-08-19T07:29:19;22.90;72.10
56426;DHT22;42330;43.620;3.856;2022-08-19T07:31:49;23.00;71.60
56426;DHT22;42330;43.620;3.856;2022-08-19T07:34:15;23.10;71.40
56426;DHT22;42330;43.620;3.856;2022-08-19T07:36:43;23.20;71.10
56426;DHT22;42330;43.620;3.856;2022-08-19T07:39:30;23.20;70.50
56426;DHT22;42330;43.620;3.856;2022-08-19T07:41:57;23.30;70.80
56426;DHT22;42330;43.620;3.856;2022-08-19T07:44:24;23.30;70.40
56426;DHT22;42330;43.620;3.856;2022-08-19T07:46:53;23.30;70.80
56426;DHT22;42330;43.620;3.856;2022-08-19T07:49:22;23.40;69.30
56426;DHT22;42330;43.620;3.856;2022-08-19T07:51:51;23.40;70.40
56426;DHT22;42330;43.620;3.856;2022-08-19T07:54:19;23.50;71.10
56426;DHT22;42330;43.620;3.856;2022-08-19T07:56:45;23.50;69.20
56426;DHT22;42330;43.620;3.856;2022-08-19T07:59:11;23.70;68.60
56426;DHT22;42330;43.620;3.856;2022-08-19T08:01:37;23.70;69.40
56426;DHT22;42330;43.620;3.856;2022-08-19T08:04:06;23.70;69.50
56426;DHT22;42330;43.620;3.856;2022-08-19T08:07:08;23.80;69.80
56426;DHT22;42330;43.620;3.856;2022-08-19T08:09:53;23.90;68.60
56426;DHT22;42330;43.620;3.856;2022-08-19T08:12:25;24.00;67.60
56426;DHT22;42330;43.620;3.856;2022-08-19T08:14:55;24.10;68.00
56426;DHT22;42330;43.620;3.856;2022-08-19T08:17:24;24.10;67.80
56426;DHT22;42330;43.620;3.856;2022-08-19T08:19:50;24.20;67.60
56426;DHT22;42330;43.620;3.856;2022-08-19T08:22:18;24.30;67.10
56426;DHT22;42330;43.620;3.856;2022-08-19T08:25:14;24.40;66.60
56426;DHT22;42330;43.620;3.856;2022-08-19T08:27:42;24.40;66.70
56426;DHT22;42330;43.620;3.856;2022-08-19T08:30:11;24.40;66.70
56426;DHT22;42330;43.620;3.856;2022-08-19T08:32:38;24.40;67.00
56426;DHT22;42330;43.620;3.856;2022-08-19T08:35:06;24.50;65.50
56426;DHT22;42330;43.620;3.856;2022-08-19T08:37:32;24.60;65.80
56426;DHT22;42330;43.620;3.856;2022-08-19T08:39:58;24.70;66.90
56426;DHT22;42330;43.620;3.856;2022-08-19T08:42:34;24.70;65.80
56426;DHT22;42330;43.620;3.856;2022-08-19T08:45:05;24.80;65.20
56426;DHT22;42330;43.620;3.856;2022-08-19T08:47:36;24.90;64.60
56426;DHT22;42330;43.620;3.856;2022-08-19T08:50:18;24.90;65.20
56426;DHT22;42330;43.620;3.856;2022-08-19T08:52:47;25.10;64.20
56426;DHT22;42330;43.620;3.856;2022-08-19T08:55:16;25.20;64.90
56426;DHT22;42330;43.620;3.856;2022-08-19T09:00:29;25.20;64.20
56426;DHT22;42330;43.620;3.856;2022-08-19T09:02:56;25.30;64.50
56426;DHT22;42330;43.620;3.856;2022-08-19T09:05:26;25.40;64.20
56426;DHT22;42330;43.620;3.856;2022-08-19T09:08:06;25.50;65.60
56426;DHT22;42330;43.620;3.856;2022-08-19T09:10:46;25.60;64.50
56426;DHT22;42330;43.620;3.856;2022-08-19T09:16:11;25.90;64.40
56426;DHT22;42330;43.620;3.856;2022-08-19T09:18:49;26.10;63.30
56426;DHT22;42330;43.620;3.856;2022-08-19T09:21:18;26.20;62.50
56426;DHT22;42330;43.620;3.856;2022-08-19T09:23:43;26.30;62.10
56426;DHT22;42330;43.620;3.856;2022-08-19T09:26:14;26.30;61.50
56426;DHT22;42330;43.620;3.856;2022-08-19T09:28:42;26.30;62.60
56426;DHT22;42330;43.620;3.856;2022-08-19T09:31:10;26.40;61.80
56426;DHT22;42330;43.620;3.856;2022-08-19T09:33:36;26.50;62.10
56426;DHT22;42330;43.620;3.856;2022-08-19T09:36:06;26.50;61.60
56426;DHT22;42330;43.620;3.856;2022-08-19T09:38:34;26.60;61.40
56426;DHT22;42330;43.620;3.856;2022-08-19T09:41:04;26.70;61.20
56426;DHT22;42330;43.620;3.856;2022-08-19T09:43:32;26.80;60.70
56426;DHT22;42330;43.620;3.856;2022-08-19T09:45:57;26.80;61.10
56426;DHT22;42330;43.620;3.856;2022-08-19T09:48:24;26.90;62.20
56426;DHT22;42330;43.620;3.856;2022-08-19T09:50:50;27.10;60.90
56426;DHT22;42330;43.620;3.856;2022-08-19T09:53:16;27.20;59.80
56426;DHT22;42330;43.620;3.856;2022-08-19T09:55:43;27.30;59.00
56426;DHT22;42330;43.620;3.856;2022-08-19T09:58:09;27.40;57.70
56426;DHT22;42330;43.620;3.856;2022-08-19T10:00:37;27.50;58.50
56426;DHT22;42330;43.620;3.856;2022-08-19T10:03:03;27.60;58.60
56426;DHT22;42330;43.620;3.856;2022-08-19T10:05:28;27.60;58.30
56426;DHT22;42330;43.620;3.856;2022-08-19T10:08:13;27.70;57.50
56426;DHT22;42330;43.620;3.856;2022-08-19T10:10:42;27.90;57.50
56426;DHT22;42330;43.620;3.856;2022-08-19T10:13:09;28.10;56.60
56426;DHT22;42330;43.620;3.856;2022-08-19T10:15:35;28.20;56.30
56426;DHT22;42330;43.620;3.856;2022-08-19T10:18:03;28.30;56.20
56426;DHT22;42330;43.620;3.856;2022-08-19T10:20:29;28.40;56.60
56426;DHT22;42330;43.620;3.856;2022-08-19T10:22:55;28.60;57.00
56426;DHT22;42330;43.620;3.856;2022-08-19T10:25:21;28.90;57.10
56426;DHT22;42330;43.620;3.856;2022-08-19T10:27:46;29.30;56.30
56426;DHT22;42330;43.620;3.856;2022-08-19T10:30:12;29.70;55.10
56426;DHT22;42330;43.620;3.856;2022-08-19T10:32:38;29.90;53.60
56426;DHT22;42330;43.620;3.856;2022-08-19T10:35:04;30.30;54.80
56426;DHT22;42330;43.620;3.856;2022-08-19T10:37:34;31.10;55.00
56426;DHT22;42330;43.620;3.856;2022-08-19T10:39:59;31.30;54.40
56426;DHT22;42330;43.620;3.856;2022-08-19T10:42:27;31.40;53.20
56426;DHT22;42330;43.620;3.856;2022-08-19T10:44:52;31.80;53.90
56426;DHT22;42330;43.620;3.856;2022-08-19T10:47:18;31.60;51.30
56426;DHT22;42330;43.620;3.856;2022-08-19T10:49:44;31.50;52.60
56426;DHT22;42330;43.620;3.856;2022-08-19T10:52:28;31.60;50.70
56426;DHT22;42330;43.620;3.856;2022-08-19T10:55:05;31.80;51.90
56426;DHT22;42330;43.620;3.856;2022-08-19T10:57:50;32.30;52.00
56426;DHT22;42330;43.620;3.856;2022-08-19T11:00:19;32.60;49.70
56426;DHT22;42330;43.620;3.856;2022-08-19T11:02:45;32.70;50.70
56426;DHT22;42330;43.620;3.856;2022-08-19T11:05:11;33.00;49.00
56426;DHT22;42330;43.620;3.856;2022-08-19T11:07:39;32.80;49.50
56426;DHT22;42330;43.620;3.856;2022-08-19T11:10:06;32.60;50.10
56426;DHT22;42330;43.620;3.856;2022-08-19T11:12:32;32.00;48.70
56426;DHT22;42330;43.620;3.856;2022-08-19T11:14:58;32.50;52.30
56426;DHT22;42330;43.620;3.856;2022-08-19T11:17:24;32.10;51.00
56426;DHT22;42330;43.620;3.856;2022-08-19T11:19:50;31.60;50.60
56426;DHT22;42330;43.620;3.856;2022-08-19T11:22:15;31.30;51.00
56426;DHT22;42330;43.620;3.856;2022-08-19T11:24:42;31.30;52.60
56426;DHT22;42330;43.620;3.856;2022-08-19T11:27:09;31.10;53.10
56426;DHT22;42330;43.620;3.856;2022-08-19T11:29:37;31.10;51.40
56426;DHT22;42330;43.620;3.856;2022-08-19T11:32:06;31.00;52.10
56426;DHT22;42330;43.620;3.856;2022-08-19T11:34:32;31.60;52.20
56426;DHT22;42330;43.620;3.856;2022-08-19T11:36:58;31.60;52.20
56426;DHT22;42330;43.620;3.856;2022-08-19T11:39:27;31.70;51.60
56426;DHT22;42330;43.620;3.856;2022-08-19T11:41:53;31.20;52.10
56426;DHT22;42330;43.620;3.856;2022-08-19T11:44:19;30.90;51.50
56426;DHT22;42330;43.620;3.856;2022-08-19T11:46:45;31.00;53.60
56426;DHT22;42330;43.620;3.856;2022-08-19T11:49:12;31.20;52.30
56426;DHT22;42330;43.620;3.856;2022-08-19T11:51:39;31.50;53.90
56426;DHT22;42330;43.620;3.856;2022-08-19T11:54:05;31.10;51.70
56426;DHT22;42330;43.620;3.856;2022-08-19T11:56:32;31.00;53.50
56426;DHT22;42330;43.620;3.856;2022-08-19T11:58:57;30.50;52.00
56426;DHT22;42330;43.620;3.856;2022-08-19T12:01:25;30.20;52.40
56426;DHT22;42330;43.620;3.856;2022-08-19T12:03:53;30.30;53.00
56426;DHT22;42330;43.620;3.856;2022-08-19T12:06:22;30.20;52.00
56426;DHT22;42330;43.620;3.856;2022-08-19T12:08:51;30.00;52.70
56426;DHT22;42330;43.620;3.856;2022-08-19T12:11:16;30.10;53.80
56426;DHT22;42330;43.620;3.856;2022-08-19T12:13:42;30.10;51.80
56426;DHT22;42330;43.620;3.856;2022-08-19T12:16:18;30.10;54.30
56426;DHT22;42330;43.620;3.856;2022-08-19T12:18:45;30.30;53.80
56426;DHT22;42330;43.620;3.856;2022-08-19T12:21:17;30.40;53.20
56426;DHT22;42330;43.620;3.856;2022-08-19T12:23:43;30.40;52.90
56426;DHT22;42330;43.620;3.856;2022-08-19T12:26:11;30.20;53.00
56426;DHT22;42330;43.620;3.856;2022-08-19T12:28:37;30.00;53.60
56426;DHT22;42330;43.620;3.856;2022-08-19T12:31:03;29.80;53.50
56426;DHT22;42330;43.620;3.856;2022-08-19T12:33:29;29.80;53.90
56426;DHT22;42330;43.620;3.856;2022-08-19T12:36:01;29.70;53.50
56426;DHT22;42330;43.620;3.856;2022-08-19T12:38:28;29.50;53.80
56426;DHT22;42330;43.620;3.856;2022-08-19T12:40:54;29.60;51.70
56426;DHT22;42330;43.620;3.856;2022-08-19T12:43:20;29.50;53.20
56426;DHT22;42330;43.620;3.856;2022-08-19T12:45:47;29.60;53.30
56426;DHT22;42330;43.620;3.856;2022-08-19T12:48:13;29.70;52.60
56426;DHT22;42330;43.620;3.856;2022-08-19T12:50:41;29.70;52.50
56426;DHT22;42330;43.620;3.856;2022-08-19T12:53:07;29.80;53.00
56426;DHT22;42330;43.620;3.856;2022-08-19T12:55:34;29.70;53.00
56426;DHT22;42330;43.620;3.856;2022-08-19T12:57:59;29.50;52.60
56426;DHT22;42330;43.620;3.856;2022-08-19T13:00:27;29.50;52.80
56426;DHT22;42330;43.620;3.856;2022-08-19T13:02:53;29.60;54.00
56426;DHT22;42330;43.620;3.856;2022-08-19T13:05:25;29.90;53.00
56426;DHT22;42330;43.620;3.856;2022-08-19T13:07:53;30.10;51.60
56426;DHT22;42330;43.620;3.856;2022-08-19T13:10:23;30.00;51.50
56426;DHT22;42330;43.620;3.856;2022-08-19T13:12:51;29.80;51.60
56426;DHT22;42330;43.620;3.856;2022-08-19T13:15:18;29.80;49.90
56426;DHT22;42330;43.620;3.856;2022-08-19T13:17:51;30.00;51.90
56426;DHT22;42330;43.620;3.856;2022-08-19T13:20:19;30.20;50.30
56426;DHT22;42330;43.620;3.856;2022-08-19T13:22:46;30.20;50.00
56426;DHT22;42330;43.620;3.856;2022-08-19T13:25:12;30.40;51.10
56426;DHT22;42330;43.620;3.856;2022-08-19T13:27:39;30.40;49.00
56426;DHT22;42330;43.620;3.856;2022-08-19T13:30:07;30.50;49.60
56426;DHT22;42330;43.620;3.856;2022-08-19T13:32:52;30.50;49.90
56426;DHT22;42330;43.620;3.856;2022-08-19T13:35:43;30.60;48.00
56426;DHT22;42330;43.620;3.856;2022-08-19T13:38:10;30.50;47.40
56426;DHT22;42330;43.620;3.856;2022-08-19T13:40:36;30.30;49.40
56426;DHT22;42330;43.620;3.856;2022-08-19T13:43:03;30.50;48.30
56426;DHT22;42330;43.620;3.856;2022-08-19T13:45:31;30.50;47.80
56426;DHT22;42330;43.620;3.856;2022-08-19T13:48:02;30.50;49.20
56426;DHT22;42330;43.620;3.856;2022-08-19T13:50:32;30.60;47.00
56426;DHT22;42330;43.620;3.856;2022-08-19T13:52:59;30.60;48.30
56426;DHT22;42330;43.620;3.856;2022-08-19T13:55:25;30.60;47.30
56426;DHT22;42330;43.620;3.856;2022-08-19T13:57:57;30.60;49.50
56426;DHT22;42330;43.620;3.856;2022-08-19T14:00:24;30.70;49.00
56426;DHT22;42330;43.620;3.856;2022-08-19T14:02:53;30.80;49.00
56426;DHT22;42330;43.620;3.856;2022-08-19T14:05:20;30.80;49.00
56426;DHT22;42330;43.620;3.856;2022-08-19T14:07:46;30.80;48.90
56426;DHT22;42330;43.620;3.856;2022-08-19T14:10:14;30.70;49.20
56426;DHT22;42330;43.620;3.856;2022-08-19T14:12:41;30.40;47.10
56426;DHT22;42330;43.620;3.856;2022-08-19T14:15:09;30.20;49.00
56426;DHT22;42330;43.620;3.856;2022-08-19T14:17:38;30.10;49.50
56426;DHT22;42330;43.620;3.856;2022-08-19T14:20:06;30.10;50.60
56426;DHT22;42330;43.620;3.856;2022-08-19T14:22:36;30.20;50.40
56426;DHT22;42330;43.620;3.856;2022-08-19T14:25:04;30.40;51.50
56426;DHT22;42330;43.620;3.856;2022-08-19T14:27:33;30.60;51.10
56426;DHT22;42330;43.620;3.856;2022-08-19T14:29:59;30.70;50.60
56426;DHT22;42330;43.620;3.856;2022-08-19T14:32:25;30.70;48.70
56426;DHT22;42330;43.620;3.856;2022-08-19T14:34:52;30.60;49.40
56426;DHT22;42330;43.620;3.856;2022-08-19T14:37:18;30.50;48.40
56426;DHT22;42330;43.620;3.856;2022-08-19T14:39:44;30.40;49.20
56426;DHT22;42330;43.620;3.856;2022-08-19T14:42:11;30.30;49.10
56426;DHT22;42330;43.620;3.856;2022-08-19T14:44:37;30.20;48.10
56426;DHT22;42330;43.620;3.856;2022-08-19T14:47:04;30.30;47.10
56426;DHT22;42330;43.620;3.856;2022-08-19T14:49:32;30.50;47.50
56426;DHT22;42330;43.620;3.856;2022-08-19T14:51:58;30.50;46.60
56426;DHT22;42330;43.620;3.856;2022-08-19T14:54:23;30.50;49.20
56426;DHT22;42330;43.620;3.856;2022-08-19T14:56:49;30.60;48.70
56426;DHT22;42330;43.620;3.856;2022-08-19T14:59:15;30.40;48.00
56426;DHT22;42330;43.620;3.856;2022-08-19T15:01:41;30.30;47.50
56426;DHT22;42330;43.620;3.856;2022-08-19T15:04:07;30.10;47.00
56426;DHT22;42330;43.620;3.856;2022-08-19T15:06:33;30.10;47.30
56426;DHT22;42330;43.620;3.856;2022-08-19T15:08:59;30.20;47.10
56426;DHT22;42330;43.620;3.856;2022-08-19T15:11:27;30.30;46.10
56426;DHT22;42330;43.620;3.856;2022-08-19T15:13:54;30.20;46.60
56426;DHT22;42330;43.620;3.856;2022-08-19T15:16:21;30.00;47.10
56426;DHT22;42330;43.620;3.856;2022-08-19T15:18:50;30.10;47.20
56426;DHT22;42330;43.620;3.856;2022-08-19T15:21:16;30.20;47.50
56426;DHT22;42330;43.620;3.856;2022-08-19T15:23:44;30.20;46.10
56426;DHT22;42330;43.620;3.856;2022-08-19T15:26:09;30.10;46.20
56426;DHT22;42330;43.620;3.856;2022-08-19T15:28:36;30.10;46.40
56426;DHT22;42330;43.620;3.856;2022-08-19T15:31:02;30.00;47.10
56426;DHT22;42330;43.620;3.856;2022-08-19T15:33:31;30.10;47.70
56426;DHT22;42330;43.620;3.856;2022-08-19T15:35:57;30.10;48.20
56426;DHT22;42330;43.620;3.856;2022-08-19T15:38:23;30.10;48.80
56426;DHT22;42330;43.620;3.856;2022-08-19T15:40:51;30.20;49.10
56426;DHT22;42330;43.620;3.856;2022-08-19T15:43:19;30.20;49.00